createdAt,value
2022-08-30T00:00:44.090Z,101099.25
2022-08-30T00:03:47.545Z,101086.00
2022-08-30T00:06:49.596Z,101073.84
2022-08-30T00:09:51.600Z,101082.91
2022-08-30T00:12:53.634Z,101071.56
2022-08-30T00:15:55.857Z,101065.25
2022-08-30T00:18:57.987Z,101079.16
2022-08-30T00:22:00.134Z,101097.41
2022-08-30T00:25:03.807Z,101099.75
2022-08-30T00:28:06.249Z,101101.47
2022-08-30T00:31:08.798Z,101086.16
2022-08-30T00:34:10.965Z,101094.88
2022-08-30T00:37:13.500Z,101086.81
2022-08-30T00:40:16.229Z,101073.91
2022-08-30T00:43:24.202Z,101067.91
2022-08-30T00:46:29.974Z,101070.06
2022-08-30T00:49:33.538Z,101075.47
2022-08-30T00:52:38.795Z,101091.63
2022-08-30T00:55:44.186Z,101114.47
2022-08-30T00:58:50.814Z,101120.03
2022-08-30T01:01:54.002Z,101116.38
2022-08-30T01:04:56.659Z,101100.38
2022-08-30T01:07:58.948Z,101124.97
2022-08-30T01:11:03.757Z,101118.03
2022-08-30T01:14:07.810Z,101134.06
2022-08-30T01:17:10.085Z,101120.78
2022-08-30T01:20:20.773Z,101137.38
2022-08-30T01:23:25.990Z,101127.81
2022-08-30T01:26:31.075Z,101128.63
2022-08-30T01:29:33.659Z,101110.53
2022-08-30T01:32:43.813Z,101134.75
2022-08-30T01:36:01.684Z,101137.16
2022-08-30T01:39:04.905Z,101143.75
2022-08-30T01:42:07.126Z,101129.88
2022-08-30T01:45:10.739Z,101134.94
2022-08-30T01:48:13.057Z,101137.91
2022-08-30T01:51:15.676Z,101138.75
2022-08-30T01:54:17.815Z,101129.22
2022-08-30T01:57:22.876Z,101149.88
2022-08-30T02:00:25.251Z,101154.28
2022-08-30T02:03:33.116Z,101151.44
2022-08-30T02:06:35.171Z,101157.16
2022-08-30T02:09:37.934Z,101161.09
2022-08-30T02:12:40.002Z,101158.34
2022-08-30T02:15:42.409Z,101158.69
2022-08-30T02:18:45.079Z,101148.19
2022-08-30T02:21:47.231Z,101170.38
2022-08-30T02:24:49.422Z,101172.91
2022-08-30T02:27:51.565Z,101174.47
2022-08-30T02:30:54.302Z,101172.19
2022-08-30T02:33:56.717Z,101168.28
2022-08-30T02:36:58.892Z,101166.84
2022-08-30T02:40:01.019Z,101174.94
2022-08-30T02:43:03.433Z,101171.59
2022-08-30T02:46:06.636Z,101174.69
2022-08-30T02:49:32.096Z,101167.53
2022-08-30T02:52:31.254Z,101168.63
2022-08-30T02:55:35.233Z,101174.41
2022-08-30T02:58:37.758Z,101175.47
2022-08-30T03:01:40.021Z,101172.47
2022-08-30T03:04:46.651Z,101177.28
2022-08-30T03:07:49.902Z,101182.56
2022-08-30T03:10:52.312Z,101161.38
2022-08-30T03:13:54.322Z,101181.22
2022-08-30T03:16:56.412Z,101183.25
2022-08-30T03:20:00.474Z,101178.59
2022-08-30T03:23:02.693Z,101179.28
2022-08-30T03:26:05.047Z,101190.06
2022-08-30T03:29:07.408Z,101192.56
2022-08-30T03:32:11.900Z,101194.47
2022-08-30T03:35:16.933Z,101186.22
2022-08-30T03:38:19.086Z,101194.59
2022-08-30T03:41:21.125Z,101188.53
2022-08-30T03:44:23.468Z,101195.44
2022-08-30T03:47:25.562Z,101187.44
2022-08-30T03:50:27.668Z,101191.16
2022-08-30T03:53:29.766Z,101176.69
2022-08-30T03:56:31.900Z,101186.97
2022-08-30T03:59:33.976Z,101186.22
2022-08-30T04:02:36.090Z,101183.81
2022-08-30T04:05:38.200Z,101194.06
2022-08-30T04:08:40.561Z,101192.41
2022-08-30T04:11:42.734Z,101203.03
2022-08-30T04:14:44.915Z,101176.66
2022-08-30T04:17:47.833Z,101208.88
2022-08-30T04:20:52.434Z,101210.31
2022-08-30T04:23:54.619Z,101215.22
2022-08-30T04:26:56.940Z,101206.88
2022-08-30T04:29:59.761Z,101220.97
2022-08-30T04:33:01.842Z,101224.53
2022-08-30T04:36:05.720Z,101200.44
2022-08-30T04:39:08.435Z,101213.31
2022-08-30T04:42:11.525Z,101218.69
2022-08-30T04:45:16.477Z,101218.94
2022-08-30T04:48:22.392Z,101213.09
2022-08-30T04:51:24.429Z,101205.59
2022-08-30T04:54:26.753Z,101208.69
2022-08-30T04:57:29.342Z,101210.13
2022-08-30T05:00:32.293Z,101219.94
2022-08-30T05:03:34.367Z,101211.19
2022-08-30T05:06:36.597Z,101225.44
2022-08-30T05:09:38.618Z,101218.84
2022-08-30T05:12:41.318Z,101226.00
2022-08-30T05:15:44.042Z,101220.25
2022-08-30T05:18:48.116Z,101225.53
2022-08-30T05:21:50.215Z,101234.84
2022-08-30T05:24:52.297Z,101245.97
2022-08-30T05:27:55.679Z,101237.38
2022-08-30T05:30:58.120Z,101243.34
2022-08-30T05:34:00.551Z,101243.94
2022-08-30T05:37:02.986Z,101242.38
2022-08-30T05:40:06.520Z,101240.81
2022-08-30T05:43:14.331Z,101248.38
2022-08-30T05:46:20.106Z,101252.31
2022-08-30T05:49:22.323Z,101254.44
2022-08-30T05:52:24.473Z,101252.38
2022-08-30T05:55:26.622Z,101264.09
2022-08-30T05:58:29.657Z,101256.09
2022-08-30T06:01:38.162Z,101257.63
2022-08-30T06:04:40.334Z,101264.22
2022-08-30T06:07:45.357Z,101253.00
2022-08-30T06:10:48.137Z,101263.25
2022-08-30T06:13:51.739Z,101269.84
2022-08-30T06:16:54.038Z,101254.69
2022-08-30T06:19:56.126Z,101265.31
2022-08-30T06:22:58.381Z,101269.03
2022-08-30T06:26:06.320Z,101273.44
2022-08-30T06:29:10.850Z,101270.81
2022-08-30T06:32:13.042Z,101270.19
2022-08-30T06:35:15.201Z,101276.78
2022-08-30T06:38:17.495Z,101271.50
2022-08-30T06:41:22.835Z,101273.75
2022-08-30T06:44:25.253Z,101274.69
2022-08-30T06:47:29.201Z,101256.53
2022-08-30T06:50:32.091Z,101260.63
2022-08-30T06:53:34.790Z,101261.56
2022-08-30T06:56:37.611Z,101274.34
2022-08-30T06:59:40.430Z,101276.06
2022-08-30T07:02:43.300Z,101277.13
2022-08-30T07:05:47.791Z,101284.25
2022-08-30T07:08:56.102Z,101282.56
2022-08-30T07:12:03.243Z,101271.53
2022-08-30T07:15:06.388Z,101271.09
2022-08-30T07:18:28.154Z,101266.03
2022-08-30T07:21:38.228Z,101279.16
2022-08-30T07:24:40.569Z,101288.50
2022-08-30T07:27:42.922Z,101282.72
2022-08-30T07:30:45.130Z,101286.34
2022-08-30T07:33:48.333Z,101280.09
2022-08-30T07:36:50.481Z,101272.31
2022-08-30T07:39:52.702Z,101276.16
2022-08-30T07:42:55.238Z,101281.25
2022-08-30T07:46:03.004Z,101277.19
2022-08-30T07:49:10.979Z,101271.19
2022-08-30T07:52:13.403Z,101276.28
2022-08-30T07:55:16.612Z,101272.72
2022-08-30T07:58:19.407Z,101283.22
2022-08-30T08:01:23.383Z,101288.31
2022-08-30T08:04:26.025Z,101279.81
2022-08-30T08:07:28.245Z,101275.22
2022-08-30T08:10:30.520Z,101279.06
2022-08-30T08:13:32.932Z,101286.25
2022-08-30T08:16:50.042Z,101279.78
2022-08-30T08:19:52.131Z,101276.75
2022-08-30T08:22:54.549Z,101290.66
2022-08-30T08:25:57.194Z,101290.13
2022-08-30T08:28:59.301Z,101288.22
2022-08-30T08:32:01.642Z,101287.38
2022-08-30T08:35:03.973Z,101278.94
2022-08-30T08:38:06.313Z,101280.97
2022-08-30T08:41:30.099Z,101277.34
2022-08-30T08:44:41.361Z,101272.16
2022-08-30T08:47:56.387Z,101269.75
2022-08-30T08:51:18.272Z,101269.25
2022-08-30T08:54:44.544Z,101274.59
2022-08-30T08:57:47.005Z,101271.59
2022-08-30T09:00:49.232Z,101262.47
2022-08-30T09:03:52.554Z,101266.16
2022-08-30T09:07:18.057Z,101260.63
2022-08-30T09:10:40.552Z,101255.72
2022-08-30T09:13:43.787Z,101252.19
2022-08-30T09:17:09.900Z,101250.53
2022-08-30T09:20:11.936Z,101255.13
2022-08-30T09:23:13.887Z,101257.63
2022-08-30T09:26:29.262Z,101253.63
2022-08-30T09:29:31.570Z,101247.44
2022-08-30T09:32:40.758Z,101234.66
2022-08-30T09:35:49.375Z,101244.44
2022-08-30T09:39:03.085Z,101245.31
2022-08-30T09:42:19.933Z,101230.13
2022-08-30T09:45:36.247Z,101238.19
2022-08-30T09:48:44.071Z,101225.38
2022-08-30T09:51:59.309Z,101221.34
2022-08-30T09:55:30.142Z,101211.28
2022-08-30T09:58:50.782Z,101204.16
2022-08-30T10:02:11.336Z,101202.25
2022-08-30T10:05:25.319Z,101184.84
2022-08-30T10:08:49.411Z,101198.13
2022-08-30T10:12:01.414Z,101186.25
2022-08-30T10:15:15.277Z,101183.81
2022-08-30T10:18:43.433Z,101186.81
2022-08-30T10:21:58.382Z,101183.81
2022-08-30T10:25:21.489Z,101184.63
2022-08-30T10:28:36.689Z,101188.47
2022-08-30T10:31:56.926Z,101175.25
2022-08-30T10:35:07.257Z,101187.44
2022-08-30T10:38:21.129Z,101182.44
2022-08-30T10:41:25.787Z,101183.84
2022-08-30T10:44:34.877Z,101195.47
2022-08-30T10:47:44.184Z,101192.13
2022-08-30T10:50:53.697Z,101189.88
2022-08-30T10:54:02.309Z,101187.44
2022-08-30T10:57:04.898Z,101182.50
2022-08-30T11:00:13.888Z,101183.56
2022-08-30T11:03:31.304Z,101179.25
2022-08-30T11:07:00.788Z,101177.06
2022-08-30T11:10:27.681Z,101184.53
2022-08-30T11:13:32.902Z,101174.66
2022-08-30T11:16:41.513Z,101172.75
2022-08-30T11:19:45.688Z,101176.94
2022-08-30T11:23:18.720Z,101166.22
2022-08-30T11:26:45.575Z,101175.91
2022-08-30T11:29:48.693Z,101160.41
2022-08-30T11:33:05.432Z,101158.25
2022-08-30T11:36:37.662Z,101147.19
2022-08-30T11:39:49.192Z,101138.59
2022-08-30T11:42:53.822Z,101136.94
2022-08-30T11:46:19.839Z,101131.66
2022-08-30T11:49:23.334Z,101132.78
2022-08-30T11:52:48.896Z,101134.44
2022-08-30T11:56:09.359Z,101129.50
2022-08-30T11:59:24.004Z,101119.53
2022-08-30T12:02:52.559Z,101127.50
2022-08-30T12:05:59.560Z,101115.63
2022-08-30T12:09:02.508Z,101114.78
2022-08-30T12:12:11.236Z,101108.97
2022-08-30T12:15:52.408Z,101108.94
2022-08-30T12:19:00.299Z,101101.72
2022-08-30T12:22:08.084Z,101092.69
2022-08-30T12:25:19.242Z,101086.09
2022-08-30T12:28:26.629Z,101083.31
2022-08-30T12:31:28.913Z,101076.13
2022-08-30T12:34:35.160Z,101080.56
2022-08-30T12:37:42.275Z,101072.34
2022-08-30T12:40:56.633Z,101070.69
2022-08-30T12:43:59.313Z,101066.81
2022-08-30T12:47:04.802Z,101050.19
2022-08-30T12:50:15.151Z,101073.75
2022-08-30T12:53:25.976Z,101061.06
2022-08-30T12:56:57.016Z,101066.06
2022-08-30T13:00:02.068Z,101047.56
2022-08-30T13:03:24.151Z,101058.31
2022-08-30T13:06:58.135Z,101065.50
2022-08-30T13:10:10.429Z,101046.91
2022-08-30T13:13:28.850Z,101039.22
2022-08-30T13:16:44.597Z,101041.75
2022-08-30T13:20:05.915Z,101040.66
2022-08-30T13:23:11.469Z,101040.63
2022-08-30T13:26:14.144Z,101035.63
2022-08-30T13:29:26.834Z,101039.75
2022-08-30T13:32:29.547Z,101027.59
2022-08-30T13:35:32.506Z,101032.94
2022-08-30T13:38:35.199Z,101022.13
2022-08-30T13:41:38.857Z,101028.41
2022-08-30T13:44:42.745Z,101030.09
2022-08-30T13:47:47.203Z,101025.09
2022-08-30T13:50:49.366Z,101005.44
2022-08-30T13:53:52.675Z,101031.47
2022-08-30T13:56:56.602Z,101019.31
2022-08-30T13:59:59.171Z,101023.47
2022-08-30T14:03:02.158Z,101019.63
2022-08-30T14:06:31.623Z,101017.94
2022-08-30T14:09:28.032Z,101004.91
2022-08-30T14:16:26.987Z,101005.72
2022-08-30T14:19:16.167Z,101002.38
2022-08-30T14:22:20.892Z,101008.75
2022-08-30T14:25:23.110Z,101002.66
2022-08-30T14:28:26.673Z,101001.75
2022-08-30T14:31:32.427Z,101008.63
2022-08-30T14:34:35.637Z,101000.31
2022-08-30T14:37:37.679Z,100998.91
2022-08-30T14:40:41.804Z,101001.38
2022-08-30T14:43:43.959Z,101006.63
2022-08-30T14:46:46.541Z,100992.72
2022-08-30T14:49:48.856Z,101001.84
2022-08-30T14:52:52.176Z,101000.19
2022-08-30T14:55:54.259Z,100998.22
2022-08-30T14:59:02.819Z,100988.22
2022-08-30T15:02:05.604Z,100980.75
2022-08-30T15:05:08.381Z,100966.09
2022-08-30T15:08:10.659Z,100960.28
2022-08-30T15:11:16.159Z,100958.38
2022-08-30T15:14:18.131Z,100969.13
2022-08-30T15:17:20.181Z,100956.16
2022-08-30T15:20:22.391Z,100961.66
2022-08-30T15:23:24.829Z,100956.34
2022-08-30T15:26:27.304Z,100963.81
2022-08-30T15:29:31.812Z,100973.47
2022-08-30T15:32:34.242Z,100962.41
2022-08-30T15:35:36.521Z,100973.72
2022-08-30T15:38:38.967Z,100965.44
2022-08-30T15:41:44.293Z,100962.91
2022-08-30T15:44:50.614Z,100964.00
2022-08-30T15:47:52.708Z,100955.66
2022-08-30T15:50:58.385Z,100952.88
2022-08-30T15:54:00.588Z,100946.75
2022-08-30T15:57:02.628Z,100960.03
2022-08-30T16:00:10.192Z,100947.31
2022-08-30T16:03:12.511Z,100959.19
2022-08-30T16:06:24.814Z,100959.47
2022-08-30T16:09:32.660Z,100956.66
2022-08-30T16:12:34.928Z,100958.88
2022-08-30T16:15:40.044Z,100967.16
2022-08-30T16:18:42.512Z,100958.34
2022-08-30T16:21:44.888Z,100958.34
2022-08-30T16:24:47.006Z,100955.81
2022-08-30T16:27:49.266Z,100946.59
2022-08-30T16:30:51.565Z,100963.22
2022-08-30T16:33:53.909Z,100957.94
2022-08-30T16:36:56.369Z,100962.91
2022-08-30T16:39:58.565Z,100962.28
2022-08-30T16:43:00.783Z,100974.66
2022-08-30T16:46:09.161Z,100980.66
2022-08-30T16:49:13.012Z,100977.78
2022-08-30T16:52:15.171Z,101002.66
2022-08-30T16:55:17.650Z,101002.34
2022-08-30T16:58:22.257Z,101022.47
2022-08-30T17:01:31.666Z,101028.72
2022-08-30T17:04:33.995Z,101036.34
2022-08-30T17:07:36.181Z,101038.59
2022-08-30T17:10:38.367Z,101043.78
2022-08-30T17:13:40.841Z,101057.31
2022-08-30T17:16:43.077Z,101050.63
2022-08-30T17:19:48.018Z,101060.81
2022-08-30T17:22:50.113Z,101069.56
2022-08-30T17:25:53.149Z,101092.97
2022-08-30T17:28:55.196Z,101073.75
2022-08-30T17:31:58.228Z,101090.69
2022-08-30T17:35:00.630Z,101096.44
2022-08-30T17:38:02.866Z,101106.63
2022-08-30T17:41:07.019Z,101100.41
2022-08-30T17:44:09.446Z,101103.47
2022-08-30T17:47:12.152Z,101107.66
2022-08-30T17:50:15.452Z,101115.66
2022-08-30T17:53:21.841Z,101110.66
2022-08-30T17:56:33.956Z,101107.34
2022-08-30T17:59:36.760Z,101108.56
2022-08-30T18:02:39.696Z,101113.75
2022-08-30T18:05:43.947Z,101113.50
2022-08-30T18:08:48.955Z,101115.66
2022-08-30T18:11:52.594Z,101114.06
2022-08-30T18:14:58.655Z,101108.50
2022-08-30T18:18:01.120Z,101105.81
2022-08-30T18:21:13.431Z,101088.22
2022-08-30T18:24:16.504Z,101112.34
2022-08-30T18:27:28.326Z,101111.19
2022-08-30T18:30:34.750Z,101117.53
2022-08-30T18:33:42.083Z,101115.59
2022-08-30T18:36:49.613Z,101136.78
2022-08-30T18:39:53.087Z,101132.59
2022-08-30T18:42:55.224Z,101142.28
2022-08-30T18:46:01.965Z,101154.13
2022-08-30T18:49:05.165Z,101153.53
2022-08-30T18:52:10.274Z,101148.72
2022-08-30T18:55:12.470Z,101153.97
2022-08-30T18:58:14.877Z,101155.06
2022-08-30T19:01:22.890Z,101168.88
2022-08-30T19:04:35.796Z,101158.03
2022-08-30T19:07:40.963Z,101172.25
2022-08-30T19:10:44.143Z,101175.50
2022-08-30T19:13:46.295Z,101164.03
2022-08-30T19:16:49.422Z,101171.47
2022-08-30T19:19:52.169Z,101167.66
2022-08-30T19:23:08.627Z,101177.06
2022-08-30T19:26:11.844Z,101178.72
2022-08-30T19:29:16.074Z,101184.16
2022-08-30T19:32:18.595Z,101178.31
2022-08-30T19:35:21.452Z,101185.97
2022-08-30T19:38:23.628Z,101193.16
2022-08-30T19:41:28.686Z,101190.16
2022-08-30T19:44:30.897Z,101189.91
2022-08-30T19:47:33.175Z,101179.31
2022-08-30T19:50:35.304Z,101183.16
2022-08-30T19:53:38.922Z,101177.38
2022-08-30T19:56:41.116Z,101185.47
2022-08-30T19:59:43.228Z,101189.34
2022-08-30T20:02:50.572Z,101198.41
2022-08-30T20:05:53.571Z,101193.06
2022-08-30T20:08:56.529Z,101190.06
2022-08-30T20:12:01.963Z,101198.97
2022-08-30T20:15:10.283Z,101198.75
2022-08-30T20:18:14.444Z,101201.16
2022-08-30T20:21:17.038Z,101204.84
2022-08-30T20:24:19.757Z,101204.00
2022-08-30T20:27:24.456Z,101198.41
2022-08-30T20:30:27.279Z,101201.75
2022-08-30T20:33:31.400Z,101213.25
2022-08-30T20:36:34.938Z,101220.19
2022-08-30T20:39:38.159Z,101214.09
2022-08-30T20:42:43.883Z,101206.56
2022-08-30T20:45:47.110Z,101212.41
2022-08-30T20:48:49.326Z,101209.91
2022-08-30T20:51:54.401Z,101188.16
2022-08-30T20:54:56.760Z,101196.31
2022-08-30T20:57:58.896Z,101200.16
2022-08-30T21:01:01.063Z,101200.38
2022-08-30T21:04:04.640Z,101211.50
2022-08-30T21:07:06.732Z,101206.47
2022-08-30T21:10:09.663Z,101196.38
2022-08-30T21:13:11.788Z,101212.91
2022-08-30T21:16:14.408Z,101204.06
2022-08-30T21:19:17.333Z,101212.31
2022-08-30T21:22:19.424Z,101204.91
2022-08-30T21:25:23.243Z,101192.72
2022-08-30T21:28:25.392Z,101191.91
2022-08-30T21:31:29.294Z,101188.53
2022-08-30T21:34:52.043Z,101197.50
2022-08-30T21:37:54.738Z,101183.31
2022-08-30T21:40:56.876Z,101185.81
2022-08-30T21:44:01.605Z,101202.41
2022-08-30T21:47:04.426Z,101188.09
2022-08-30T21:50:07.014Z,101191.06
2022-08-30T21:53:10.270Z,101185.47
2022-08-30T21:56:21.634Z,101185.22
2022-08-30T21:59:23.850Z,101177.09
2022-08-30T22:02:26.165Z,101180.47
2022-08-30T22:05:28.490Z,101150.63
2022-08-30T22:08:30.628Z,101168.72
2022-08-30T22:11:36.166Z,101164.63
2022-08-30T22:14:38.871Z,101171.56
2022-08-30T22:17:40.923Z,101162.97
2022-08-30T22:20:43.159Z,101147.78
2022-08-30T22:23:46.738Z,101159.22
2022-08-30T22:26:48.931Z,101151.97
2022-08-30T22:29:52.167Z,101130.53
2022-08-30T22:32:54.293Z,101140.63
2022-08-30T22:35:56.742Z,101141.47
2022-08-30T22:39:00.393Z,101137.69
2022-08-30T22:42:02.545Z,101145.44
2022-08-30T22:45:05.114Z,101143.28
2022-08-30T22:48:07.846Z,101143.38
2022-08-30T22:51:11.240Z,101140.88
2022-08-30T22:54:13.610Z,101124.16
2022-08-30T22:57:18.378Z,101126.28
2022-08-30T23:00:21.127Z,101132.03
2022-08-30T23:03:23.279Z,101136.84
2022-08-30T23:06:25.490Z,101120.25
2022-08-30T23:09:29.209Z,101122.84
2022-08-30T23:12:31.781Z,101116.84
2022-08-30T23:15:34.187Z,101118.28
2022-08-30T23:18:38.744Z,101120.78
2022-08-30T23:21:41.042Z,101108.75
2022-08-30T23:25:01.695Z,101093.84
2022-08-30T23:28:23.465Z,101093.56
2022-08-30T23:31:44.171Z,101094.50
2022-08-30T23:35:04.896Z,101099.94
2022-08-30T23:38:26.457Z,101090.94
2022-08-30T23:41:47.269Z,101092.09
2022-08-30T23:45:07.883Z,101082.09
2022-08-30T23:48:28.516Z,101094.03
2022-08-30T23:51:49.507Z,101085.66
2022-08-30T23:55:10.090Z,101093.91
2022-08-30T23:58:30.810Z,101093.34
